createdAt,value
2022-09-11T07:36:52.189Z,2.38
2022-09-11T07:39:31.843Z,2.50
2022-09-11T07:42:19.483Z,2.67
2022-09-11T07:44:57.218Z,2.53
2022-09-11T07:47:34.991Z,2.80
2022-09-11T07:50:13.338Z,2.70
2022-09-11T07:52:53.917Z,2.45
2022-09-11T07:55:31.728Z,2.38
2022-09-11T07:58:09.124Z,2.70
2022-09-11T08:00:47.869Z,2.40
2022-09-11T08:03:29.052Z,2.60
2022-09-11T08:06:10.561Z,2.47
2022-09-11T08:08:50.444Z,2.30
2022-09-11T08:11:30.425Z,2.28
2022-09-11T08:14:07.957Z,2.13
2022-09-11T08:16:45.643Z,2.20
2022-09-11T08:19:25.333Z,2.30
2022-09-11T08:22:06.073Z,2.17
2022-09-11T08:24:51.483Z,2.67
2022-09-11T08:27:29.894Z,2.33
2022-09-11T08:30:07.093Z,2.40
2022-09-11T08:32:44.219Z,2.20
2022-09-11T08:35:21.106Z,2.30
2022-09-11T08:37:59.092Z,2.47
2022-09-11T08:40:41.823Z,2.00
2022-09-11T08:43:26.946Z,2.13
2022-09-11T08:46:11.244Z,2.10
2022-09-11T08:48:59.851Z,1.90
2022-09-11T08:51:37.113Z,1.88
2022-09-11T08:54:30.757Z,1.92
2022-09-11T08:57:23.891Z,1.90
2022-09-11T09:00:14.811Z,2.28
2022-09-11T09:03:51.799Z,1.90
2022-09-11T09:06:57.451Z,2.30
2022-09-11T09:09:47.203Z,1.73
2022-09-11T09:12:39.719Z,1.50
2022-09-11T09:15:34.743Z,1.75
2022-09-11T09:18:19.121Z,1.75
2022-09-11T09:21:09.548Z,1.80
2022-09-11T09:23:51.722Z,1.88
2022-09-11T09:26:38.693Z,1.63
2022-09-11T09:29:25.493Z,1.55
2022-09-11T09:32:08.150Z,1.83
2022-09-11T09:34:48.647Z,1.80
2022-09-11T09:37:27.398Z,1.80
2022-09-11T09:40:10.485Z,1.63
2022-09-11T09:43:25.324Z,1.65
2022-09-11T09:46:19.806Z,1.17
2022-09-11T09:48:57.128Z,1.58
2022-09-11T09:51:35.737Z,1.40
2022-09-11T09:54:19.246Z,1.55
2022-09-11T09:57:03.883Z,1.40
2022-09-11T09:59:46.456Z,1.30
2022-09-11T10:02:43.275Z,1.55
2022-09-11T10:05:29.029Z,1.70
2022-09-11T10:08:08.856Z,1.35
2022-09-11T10:10:45.718Z,1.60
2022-09-11T10:13:26.196Z,1.42
2022-09-11T10:16:05.535Z,1.40
2022-09-11T10:18:47.546Z,1.50
2022-09-11T10:21:33.907Z,1.45
2022-09-11T10:24:26.587Z,1.50
2022-09-11T10:27:03.384Z,1.63
2022-09-11T10:29:40.995Z,1.70
2022-09-11T10:32:21.127Z,1.58
2022-09-11T10:35:02.327Z,1.70
2022-09-11T10:37:39.443Z,1.40
2022-09-11T10:40:25.689Z,1.45
2022-09-11T10:43:02.677Z,1.48
2022-09-11T10:45:40.118Z,1.48
2022-09-11T10:48:25.065Z,1.40
2022-09-11T10:51:14.306Z,1.40
2022-09-11T10:54:08.192Z,1.52
2022-09-11T10:57:01.519Z,1.77
2022-09-11T10:59:46.402Z,1.45
2022-09-11T11:02:30.723Z,1.55
2022-09-11T11:05:11.848Z,1.27
2022-09-11T11:08:17.838Z,1.50
2022-09-11T11:11:15.778Z,1.33
2022-09-11T11:14:14.483Z,1.42
2022-09-11T11:17:03.074Z,1.40
2022-09-11T11:20:14.175Z,1.50
2022-09-11T11:23:39.369Z,1.25
2022-09-11T11:26:37.748Z,1.30
2022-09-11T11:29:46.347Z,1.40
2022-09-11T11:32:50.146Z,1.50
2022-09-11T11:35:34.134Z,1.50
2022-09-11T11:38:23.386Z,1.50
2022-09-11T11:41:07.628Z,1.30
2022-09-11T11:43:48.584Z,1.48
2022-09-11T11:46:30.637Z,1.48
2022-09-11T11:49:15.354Z,1.40
2022-09-11T11:51:59.107Z,1.48
2022-09-11T11:54:47.969Z,1.50
2022-09-11T11:57:29.014Z,1.58
2022-09-11T12:00:12.810Z,1.40
2022-09-11T12:02:57.937Z,1.67
2022-09-11T12:05:37.858Z,1.40
2022-09-11T12:08:17.517Z,1.48
2022-09-11T12:11:05.344Z,1.50
2022-09-11T12:13:47.762Z,1.52
2022-09-11T12:19:20.213Z,1.48
2022-09-11T12:22:16.325Z,1.67
2022-09-11T12:24:59.657Z,1.60
2022-09-11T12:28:12.893Z,1.60
2022-09-11T12:31:03.364Z,1.70
2022-09-11T12:34:00.333Z,1.33
2022-09-11T12:36:54.848Z,1.45
2022-09-11T12:39:36.545Z,1.70
2022-09-11T12:42:50.754Z,1.73
2022-09-11T12:45:44.095Z,1.23
2022-09-11T12:48:26.293Z,1.30
2022-09-11T12:51:04.054Z,1.55
2022-09-11T12:53:46.752Z,1.35
2022-09-11T12:56:26.751Z,2.03
2022-09-11T12:59:08.034Z,1.50
2022-09-11T13:01:48.991Z,1.35
2022-09-11T13:04:31.424Z,1.58
2022-09-11T13:07:11.082Z,1.60
2022-09-11T13:09:52.692Z,1.70
2022-09-11T13:13:06.564Z,1.60
2022-09-11T13:15:45.928Z,1.77
2022-09-11T13:18:35.922Z,1.85
2022-09-11T13:21:26.364Z,1.80
2022-09-11T13:24:07.081Z,1.80
2022-09-11T13:26:45.773Z,1.67
2022-09-11T13:29:27.125Z,1.70
2022-09-11T13:32:10.579Z,1.70
2022-09-11T13:35:02.257Z,1.90
2022-09-11T13:37:43.868Z,1.70
2022-09-11T13:40:27.481Z,1.35
2022-09-11T13:43:06.965Z,1.52
2022-09-11T13:45:44.879Z,1.55
2022-09-11T13:48:26.082Z,1.70
2022-09-11T13:51:07.003Z,1.73
2022-09-11T13:53:45.978Z,1.60
2022-09-11T13:56:47.453Z,1.60
2022-09-11T13:59:49.686Z,1.70
2022-09-11T14:02:50.427Z,1.80
2022-09-11T14:05:31.803Z,1.80
2022-09-11T14:08:25.844Z,1.50
2022-09-11T14:11:10.988Z,1.60
2022-09-11T14:13:56.633Z,2.15
2022-09-11T14:16:38.631Z,1.50
2022-09-11T14:19:21.746Z,1.65
2022-09-11T14:21:59.012Z,1.83
2022-09-11T14:24:41.925Z,1.60
2022-09-11T14:27:41.504Z,1.60
2022-09-11T14:30:38.569Z,1.90
2022-09-11T14:33:29.583Z,1.58
2022-09-11T14:36:14.797Z,1.70
2022-09-11T14:38:53.723Z,1.88
2022-09-11T14:41:33.683Z,1.58
2022-09-11T14:44:13.077Z,1.92
2022-09-11T14:46:50.531Z,1.70
2022-09-11T14:49:27.931Z,1.35
2022-09-11T14:52:05.581Z,1.40
2022-09-11T14:54:43.023Z,1.42
2022-09-11T14:57:26.671Z,1.52
2022-09-11T15:00:03.453Z,1.40
2022-09-11T15:02:41.065Z,1.60
2022-09-11T15:05:23.303Z,2.00
2022-09-11T15:08:01.964Z,1.95
2022-09-11T15:10:40.398Z,1.80
2022-09-11T15:13:22.990Z,1.83
2022-09-11T15:16:02.795Z,1.98
2022-09-11T15:18:42.404Z,1.88
2022-09-11T15:21:25.632Z,1.63
2022-09-11T15:24:13.945Z,1.90
2022-09-11T15:27:00.422Z,1.45
2022-09-11T15:29:48.883Z,1.95
2022-09-11T15:32:32.507Z,1.80
2022-09-11T15:35:17.695Z,1.67
2022-09-11T15:37:56.494Z,1.80
2022-09-11T15:40:33.684Z,1.48
2022-09-11T15:43:10.652Z,1.70
2022-09-11T15:45:50.689Z,1.90
2022-09-11T15:48:28.775Z,2.20
2022-09-11T15:51:11.453Z,1.60
2022-09-11T15:53:52.855Z,1.73
2022-09-11T15:56:36.779Z,1.50
2022-09-11T16:01:55.608Z,1.80
2022-09-11T16:04:35.586Z,1.60
2022-09-11T16:07:13.227Z,1.77
2022-09-11T16:09:50.296Z,2.03
2022-09-11T16:12:27.518Z,1.85
2022-09-11T16:15:04.877Z,1.83
2022-09-11T16:17:45.555Z,1.80
2022-09-11T16:20:22.737Z,2.10
2022-09-11T16:22:59.985Z,1.80
2022-09-11T16:25:42.737Z,1.90
2022-09-11T16:28:19.967Z,1.70
2022-09-11T16:30:57.207Z,1.95
2022-09-11T16:33:44.323Z,1.75
2022-09-11T16:36:23.682Z,1.83
2022-09-11T16:39:02.179Z,2.03
2022-09-11T16:41:40.919Z,2.20
2022-09-11T16:44:20.216Z,1.60
2022-09-11T16:46:57.456Z,1.73
2022-09-11T16:50:05.285Z,1.80
2022-09-11T16:52:35.043Z,1.38
2022-09-11T16:55:15.197Z,1.70
2022-09-11T16:57:53.375Z,2.08
2022-09-11T17:00:32.534Z,2.30
2022-09-11T17:03:09.425Z,2.35
2022-09-11T17:05:54.469Z,2.60
2022-09-11T17:08:32.193Z,2.60
2022-09-11T17:11:14.115Z,2.22
2022-09-11T17:13:52.305Z,2.17
2022-09-11T17:16:33.269Z,1.98
2022-09-11T17:19:11.140Z,2.10
2022-09-11T17:21:51.411Z,1.90
2022-09-11T17:24:28.551Z,1.90
2022-09-11T17:27:06.192Z,2.22
2022-09-11T17:29:44.770Z,2.30
2022-09-11T17:32:29.520Z,2.38
2022-09-11T17:35:06.963Z,3.13
2022-09-11T17:37:48.489Z,2.00
2022-09-11T17:40:25.782Z,3.50
2022-09-11T17:43:03.170Z,2.83
2022-09-11T17:45:40.341Z,3.78
2022-09-11T17:48:17.922Z,7.25
2022-09-11T17:51:02.754Z,5.25
2022-09-11T17:53:45.154Z,3.35
2022-09-11T17:56:25.319Z,4.18
2022-09-11T17:59:04.392Z,3.20
2022-09-11T18:01:41.624Z,3.60
2022-09-11T18:04:18.871Z,4.07
2022-09-11T18:06:55.844Z,4.47
2022-09-11T18:09:35.568Z,3.58
2022-09-11T18:12:12.444Z,2.90
2022-09-11T18:14:49.713Z,5.00
2022-09-11T18:17:26.712Z,3.63
2022-09-11T18:20:05.343Z,3.10
2022-09-11T18:22:42.844Z,3.13
2022-09-11T18:25:25.785Z,2.60
2022-09-11T18:28:04.383Z,2.50
2022-09-11T18:30:43.685Z,2.22
2022-09-11T18:33:20.554Z,2.40
2022-09-11T18:36:01.614Z,2.13
2022-09-11T18:38:43.420Z,2.25
2022-09-11T18:41:29.187Z,2.15
2022-09-11T18:44:12.626Z,2.33
2022-09-11T18:46:55.658Z,2.40
2022-09-11T18:49:35.474Z,2.70
2022-09-11T18:52:15.470Z,2.55
2022-09-11T18:54:52.919Z,2.30
2022-09-11T18:57:38.616Z,1.92
2022-09-11T19:00:21.134Z,2.35
2022-09-11T19:03:00.747Z,2.45
2022-09-11T19:05:37.653Z,2.35
2022-09-11T19:08:15.144Z,2.45
2022-09-11T19:10:55.844Z,2.55
2022-09-11T19:13:39.186Z,2.22
2022-09-11T19:16:20.992Z,2.00
2022-09-11T19:19:00.240Z,2.35
2022-09-11T19:21:41.498Z,2.40
2022-09-11T19:24:19.806Z,2.25
2022-09-11T19:26:57.190Z,2.03
2022-09-11T19:29:37.254Z,2.45
2022-09-11T19:32:14.599Z,2.40
2022-09-11T19:34:51.799Z,2.40
2022-09-11T19:37:28.963Z,2.03
2022-09-11T19:40:07.683Z,2.28
2022-09-11T19:42:44.671Z,2.40
